CPX726 Details

Departure: El Nuevo Dorado International Airport (SKBO) at 0510 UTC
Arrival: Miami International Airport (KMIA) at 0815 UTC
Route: UCA UA301 URSUS FLIPR5


Current Weather Information
SKBO 212200Z 10007KT 040V180 9999 FEW030 SCT200 19/09 A3024 NOSIG
KMIA 212153Z 11011KT 10SM FEW044 FEW060 FEW250 31/19 A2992 RMK AO2 SLP133 T03060189